Hauptseite
METAR-TAF:

METAR-TAF

Flughäfen :

Flugplatz Les Eplatures

La Chaux-de-Fonds, Schweiz

Breite: 47-05-03N, Länge: 006-47-37E, Höhe: 1027 m

Beobachtung

Neuester Wetterbericht von vor 18 Minuten, um 10:20 UTC
Wind 6 kt aus Nord, variierte zwischen Nordwest und Nordost
Temperatur 17°C
Luftfeuchtigkeit 59%
Luftdruck 1019 hPa
Sichtweite 10 km oder mehr
Leicht bewölkt in der Höhe von 3500 ft
Durchbrochene Bewölkung in der Höhe von 5000 ft

METAR: LSGC 221020Z AUTO 01006KT 320V050 9999 FEW035 BKN050 17/09 Q1019

Zeit: 12:38 (10:38 UTC)

Prognose

Neuester Wetterbericht von vor 2 Stunden und 13 Minuten, um 08:25 UTC
Gültige Prognose vom 22 um 09 UTC bis 22 um 18 UTC
Wind 2 kt aus unterschiedlichen Richtungen
Sichtweite 10 km oder mehr
Leicht bewölkt in der Höhe von 3000 ft
Zeitweise
vom 22 um 12 UTC bis 22 um 15 UTC
Wind 10 kt aus Nord/Nordost

TAF: LSGC 220825Z 2209/2218 VRB02KT 9999 FEW030 TEMPO 2212/2215 03010KT

Wetterbeobachtungen und Prognosen von mehr als 4000 Flughäfen (METAR und TAF Bericht).

Die verfügbaren Stationen werden durch gelbe und rote Markierungen auf der Karte dargestellt.

Führen Sie die Maus auf sie, um den Namen der Station zu sehen.

Darauf klicken, um die Beobachtung von Wetterbeobachtungen und Prognosen zu sehen.

Um die Karte zu ändern : klicken Sie auf den grünen Tasten mit einem schwarzen Kreuz Zum Vergrößern, auf den grünen Button mit einem Gedankenstrich zu verkleinern, oder auf die grünen Pfeile für benachbarte Karten.


METAR-TAF: